createdAt,value
2022-08-07T00:00:52.387Z,14.43
2022-08-07T00:02:37.594Z,14.43
2022-08-07T00:02:53.718Z,14.40
2022-08-07T00:03:51.327Z,14.36
2022-08-07T00:04:51.823Z,14.35
2022-08-07T00:05:51.299Z,14.29
2022-08-07T00:06:52.414Z,14.32
2022-08-07T00:07:59.647Z,14.29
2022-08-07T00:08:52.286Z,14.27
2022-08-07T00:10:17.794Z,14.25
2022-08-07T00:10:57.619Z,14.24
2022-08-07T00:11:56.069Z,14.25
2022-08-07T00:13:00.195Z,14.21
2022-08-07T00:13:52.224Z,14.18
2022-08-07T00:14:51.608Z,14.15
2022-08-07T00:15:51.499Z,14.15
2022-08-07T00:16:51.177Z,14.12
2022-08-07T00:17:51.152Z,14.10
2022-08-07T00:18:51.163Z,14.10
2022-08-07T00:20:02.497Z,14.06
2022-08-07T00:20:52.524Z,14.06
2022-08-07T00:21:56.706Z,14.09
2022-08-07T00:22:52.074Z,14.07
2022-08-07T00:23:51.055Z,14.04
2022-08-07T00:24:51.062Z,14.02
2022-08-07T00:25:58.166Z,14.00
2022-08-07T00:26:58.909Z,14.00
2022-08-07T00:27:56.369Z,13.99
2022-08-07T00:28:55.657Z,13.97
2022-08-07T00:29:51.984Z,13.96
2022-08-07T00:30:50.989Z,13.95
2022-08-07T00:31:51.303Z,13.92
2022-08-07T00:32:51.334Z,13.91
2022-08-07T00:33:50.944Z,13.91
2022-08-07T00:34:50.934Z,13.88
2022-08-07T00:35:50.904Z,13.88
2022-08-07T00:36:50.901Z,13.87
2022-08-07T00:37:51.221Z,13.85
2022-08-07T00:38:50.912Z,13.84
2022-08-07T00:39:54.505Z,13.82
2022-08-07T00:40:50.873Z,13.82
2022-08-07T00:41:53.442Z,13.81
2022-08-07T00:42:50.822Z,13.84
2022-08-07T00:44:00.888Z,13.85
2022-08-07T00:44:57.798Z,13.85
2022-08-07T00:45:57.783Z,13.85
2022-08-07T00:46:59.639Z,13.85
2022-08-07T00:48:08.915Z,13.82
2022-08-07T00:50:21.251Z,13.81
2022-08-07T00:51:07.935Z,13.77
2022-08-07T00:52:07.903Z,13.77
2022-08-07T00:53:09.301Z,13.75
2022-08-07T00:54:07.888Z,13.77
2022-08-07T00:55:10.607Z,13.75
2022-08-07T00:56:13.971Z,13.77
2022-08-07T00:57:07.833Z,13.78
2022-08-07T00:58:00.826Z,13.82
2022-08-07T00:59:00.822Z,13.79
2022-08-07T01:00:00.789Z,13.81
2022-08-07T01:01:01.232Z,13.84
2022-08-07T01:02:09.109Z,13.84
2022-08-07T01:03:01.773Z,13.85
2022-08-07T01:04:00.752Z,13.87
2022-08-07T01:05:00.744Z,13.89
2022-08-07T01:06:00.726Z,13.89
2022-08-07T01:07:01.096Z,13.92
2022-08-07T01:08:00.696Z,13.96
2022-08-07T01:09:01.487Z,13.97
2022-08-07T01:10:05.201Z,13.95
2022-08-07T01:12:23.646Z,13.92
2022-08-07T01:12:27.908Z,13.96
2022-08-07T01:13:01.765Z,13.95
2022-08-07T01:14:00.694Z,13.99
2022-08-07T01:15:01.054Z,14.02
2022-08-07T01:16:05.873Z,14.07
2022-08-07T01:17:01.574Z,14.10
2022-08-07T01:18:01.914Z,14.12
2022-08-07T01:19:00.564Z,14.17
2022-08-07T01:20:00.563Z,14.18
2022-08-07T01:21:00.530Z,14.22
2022-08-07T01:22:00.552Z,14.22
2022-08-07T01:23:12.438Z,14.21
2022-08-07T01:24:01.513Z,14.21
2022-08-07T01:25:00.472Z,14.18
2022-08-07T01:26:00.462Z,14.18
2022-08-07T01:27:00.467Z,14.14
2022-08-07T01:28:00.858Z,14.12
2022-08-07T01:29:00.459Z,14.09
2022-08-07T01:30:00.757Z,14.09
2022-08-07T01:31:00.435Z,14.04
2022-08-07T01:32:00.427Z,14.02
2022-08-07T01:33:00.372Z,14.00
2022-08-07T01:34:00.801Z,14.03
2022-08-07T01:35:00.340Z,14.03
2022-08-07T01:36:06.446Z,14.00
2022-08-07T01:37:01.320Z,13.99
2022-08-07T01:38:00.312Z,13.96
2022-08-07T01:39:00.366Z,13.92
2022-08-07T01:40:00.844Z,13.89
2022-08-07T01:41:00.278Z,13.88
2022-08-07T01:42:07.554Z,13.84
2022-08-07T01:43:01.249Z,13.81
2022-08-07T01:44:00.247Z,13.77
2022-08-07T01:45:00.225Z,13.73
2022-08-07T01:46:00.651Z,13.71
2022-08-07T01:47:01.139Z,13.69
2022-08-07T01:48:20.223Z,13.66
2022-08-07T01:49:02.299Z,13.64
2022-08-07T01:50:00.636Z,13.64
2022-08-07T01:51:00.145Z,13.67
2022-08-07T01:52:04.765Z,13.71
2022-08-07T01:53:00.126Z,13.77
2022-08-07T01:54:09.685Z,13.81
2022-08-07T01:55:01.188Z,13.84
2022-08-07T01:56:00.094Z,13.88
2022-08-07T01:57:00.068Z,13.89
2022-08-07T01:58:01.170Z,13.89
2022-08-07T01:59:01.066Z,13.88
2022-08-07T02:00:00.069Z,13.85
2022-08-07T02:01:09.924Z,13.81
2022-08-07T02:02:04.513Z,13.75
2022-08-07T02:03:19.160Z,13.71
2022-08-07T02:04:01.050Z,13.69
2022-08-07T02:04:59.966Z,13.64
2022-08-07T02:06:01.226Z,13.63
2022-08-07T02:06:59.935Z,13.62
2022-08-07T02:07:59.953Z,13.62
2022-08-07T02:09:00.333Z,13.60
2022-08-07T02:09:59.904Z,13.55
2022-08-07T02:10:59.881Z,13.52
2022-08-07T02:12:03.827Z,13.52
2022-08-07T02:13:01.178Z,13.49
2022-08-07T02:14:02.477Z,13.48
2022-08-07T02:15:00.830Z,13.46
2022-08-07T02:15:59.843Z,13.44
2022-08-07T02:16:59.822Z,13.42
2022-08-07T02:18:00.003Z,13.39
2022-08-07T02:18:59.872Z,13.36
2022-08-07T02:20:07.382Z,13.32
2022-08-07T02:21:00.809Z,13.30
2022-08-07T02:22:00.778Z,13.28
2022-08-07T02:23:00.045Z,13.25
2022-08-07T02:23:59.742Z,13.20
2022-08-07T02:24:59.750Z,13.23
2022-08-07T02:26:31.856Z,13.22
2022-08-07T02:27:01.456Z,13.19
2022-08-07T02:27:59.681Z,13.19
2022-08-07T02:29:00.067Z,13.15
2022-08-07T02:29:59.651Z,13.12
2022-08-07T02:30:59.650Z,13.08
2022-08-07T02:32:00.971Z,13.07
2022-08-07T02:33:04.032Z,13.05
2022-08-07T02:34:10.934Z,13.04
2022-08-07T02:35:00.698Z,13.03
2022-08-07T02:36:29.684Z,13.00
2022-08-07T02:37:00.600Z,12.96
2022-08-07T02:38:00.026Z,12.95
2022-08-07T02:38:59.673Z,12.95
2022-08-07T02:40:02.053Z,12.95
2022-08-07T02:41:00.632Z,12.93
2022-08-07T02:41:59.532Z,12.92
2022-08-07T02:42:59.479Z,12.90
2022-08-07T02:43:59.699Z,12.87
2022-08-07T02:44:59.485Z,12.89
2022-08-07T02:46:01.840Z,12.87
2022-08-07T02:46:59.451Z,12.87
2022-08-07T02:47:59.454Z,12.86
2022-08-07T02:48:59.410Z,12.82
2022-08-07T02:50:00.217Z,12.82
2022-08-07T02:50:59.382Z,12.82
2022-08-07T02:51:59.396Z,12.79
2022-08-07T02:53:00.795Z,12.79
2022-08-07T02:53:59.366Z,12.79
2022-08-07T02:54:59.337Z,12.83
2022-08-07T02:56:03.014Z,12.86
2022-08-07T02:57:00.324Z,12.87
2022-08-07T02:57:59.815Z,12.89
2022-08-07T02:58:59.323Z,12.89
2022-08-07T03:00:01.174Z,12.87
2022-08-07T03:00:59.329Z,12.89
2022-08-07T03:02:02.174Z,12.87
2022-08-07T03:02:59.281Z,12.87
2022-08-07T03:03:59.233Z,12.87
2022-08-07T03:04:59.220Z,12.86
2022-08-07T03:05:59.297Z,12.87
2022-08-07T03:06:59.193Z,12.90
2022-08-07T03:08:06.851Z,12.93
2022-08-07T03:09:00.193Z,12.95
2022-08-07T03:09:59.193Z,12.97
2022-08-07T03:10:59.182Z,13.03
2022-08-07T03:12:02.726Z,13.08
2022-08-07T03:12:59.105Z,13.14
2022-08-07T03:14:01.778Z,13.22
2022-08-07T03:15:02.215Z,13.28
2022-08-07T03:16:00.081Z,13.38
2022-08-07T03:16:59.061Z,13.45
2022-08-07T03:17:59.060Z,13.51
2022-08-07T03:18:59.042Z,13.55
2022-08-07T03:19:59.428Z,13.62
2022-08-07T03:20:59.020Z,13.67
2022-08-07T03:21:58.999Z,13.69
2022-08-07T03:22:59.009Z,13.71
2022-08-07T03:24:19.600Z,13.73
2022-08-07T03:25:00.441Z,13.73
2022-08-07T03:25:59.853Z,13.71
2022-08-07T03:26:59.612Z,13.71
2022-08-07T03:28:09.202Z,13.67
2022-08-07T03:29:00.020Z,13.64
2022-08-07T03:29:58.924Z,13.64
2022-08-07T03:30:59.319Z,13.63
2022-08-07T03:31:58.882Z,13.60
2022-08-07T03:32:59.154Z,13.57
2022-08-07T03:33:58.848Z,13.57
2022-08-07T03:35:18.160Z,13.55
2022-08-07T03:35:59.837Z,13.54
2022-08-07T03:36:58.814Z,13.54
2022-08-07T03:37:58.813Z,13.49
2022-08-07T03:38:58.805Z,13.49
2022-08-07T03:40:14.868Z,13.48
2022-08-07T03:40:59.814Z,13.44
2022-08-07T03:41:58.913Z,13.41
2022-08-07T03:42:58.833Z,13.36
2022-08-07T03:43:58.788Z,13.36
2022-08-07T03:44:58.718Z,13.32
2022-08-07T03:45:59.145Z,13.30
2022-08-07T03:47:14.177Z,13.28
2022-08-07T03:47:59.713Z,13.25
2022-08-07T03:49:02.160Z,13.19
2022-08-07T03:49:58.658Z,13.15
2022-08-07T03:50:58.635Z,13.12
2022-08-07T03:52:01.294Z,13.08
2022-08-07T03:52:58.611Z,13.07
2022-08-07T03:54:33.398Z,13.04
2022-08-07T03:55:06.803Z,13.03
2022-08-07T03:56:04.416Z,12.97
2022-08-07T03:57:07.018Z,12.96
2022-08-07T03:58:32.516Z,12.96
2022-08-07T03:59:08.829Z,12.95
2022-08-07T04:00:01.884Z,12.93
2022-08-07T04:01:00.343Z,12.90
2022-08-07T04:01:58.558Z,12.90
2022-08-07T04:02:58.870Z,12.87
2022-08-07T04:03:58.491Z,12.86
2022-08-07T04:04:58.461Z,12.83
2022-08-07T04:05:58.696Z,12.82
2022-08-07T04:06:58.490Z,12.78
2022-08-07T04:07:58.438Z,12.78
2022-08-07T04:08:58.825Z,12.78
2022-08-07T04:09:58.400Z,12.77
2022-08-07T04:12:21.564Z,12.77
2022-08-07T04:12:23.627Z,12.79
2022-08-07T04:12:59.369Z,12.83
2022-08-07T04:14:10.627Z,12.85
2022-08-07T04:15:00.242Z,12.87
2022-08-07T04:15:58.336Z,12.90
2022-08-07T04:16:58.993Z,12.92
2022-08-07T04:18:58.180Z,12.96
2022-08-07T04:19:01.613Z,13.01
2022-08-07T04:19:59.717Z,13.05
2022-08-07T04:20:58.317Z,13.05
2022-08-07T04:22:05.413Z,13.07
2022-08-07T04:23:01.368Z,13.07
2022-08-07T04:24:06.951Z,13.07
2022-08-07T04:25:01.384Z,13.10
2022-08-07T04:25:58.219Z,13.10
2022-08-07T04:26:58.222Z,13.08
2022-08-07T04:28:00.340Z,13.07
2022-08-07T04:28:58.613Z,13.05
2022-08-07T04:30:02.716Z,13.04
2022-08-07T04:30:59.630Z,13.03
2022-08-07T04:32:03.374Z,13.04
2022-08-07T04:32:59.198Z,13.03
2022-08-07T04:33:58.126Z,13.05
2022-08-07T04:34:58.104Z,13.04
2022-08-07T04:35:58.116Z,13.04
2022-08-07T04:36:58.401Z,13.03
2022-08-07T04:38:06.461Z,13.03
2022-08-07T04:38:59.169Z,13.04
2022-08-07T04:39:58.145Z,13.04
2022-08-07T04:40:58.017Z,13.05
2022-08-07T04:41:58.015Z,13.11
2022-08-07T04:43:01.705Z,13.12
2022-08-07T04:44:12.292Z,13.15
2022-08-07T04:45:02.860Z,13.17
2022-08-07T04:46:01.836Z,13.19
2022-08-07T04:47:04.652Z,13.19
2022-08-07T04:48:10.566Z,13.19
2022-08-07T04:48:58.933Z,13.19
2022-08-07T04:50:03.704Z,13.19
2022-08-07T04:50:58.911Z,13.19
2022-08-07T04:51:57.873Z,13.20
2022-08-07T04:52:57.890Z,13.22
2022-08-07T04:54:05.608Z,13.25
2022-08-07T04:54:58.880Z,13.25
2022-08-07T04:58:10.640Z,13.28
2022-08-07T04:58:11.959Z,13.26
2022-08-07T04:58:12.861Z,13.30
2022-08-07T05:00:08.059Z,13.33
2022-08-07T05:00:12.633Z,13.39
2022-08-07T05:00:58.819Z,13.41
2022-08-07T05:01:57.771Z,13.45
2022-08-07T05:02:57.783Z,13.48
2022-08-07T05:04:06.742Z,13.51
2022-08-07T05:04:59.121Z,13.54
2022-08-07T05:05:57.785Z,13.60
2022-08-07T05:06:57.687Z,13.63
2022-08-07T05:07:57.679Z,13.67
2022-08-07T05:09:00.575Z,13.71
2022-08-07T05:09:57.670Z,13.79
2022-08-07T05:10:58.590Z,13.81
2022-08-07T05:12:02.284Z,13.85
2022-08-07T05:13:01.845Z,13.88
2022-08-07T05:14:52.899Z,13.92
2022-08-07T05:15:04.599Z,13.97
2022-08-07T05:15:58.952Z,14.03
2022-08-07T05:16:57.550Z,14.09
2022-08-07T05:17:57.737Z,14.15
2022-08-07T05:18:57.647Z,14.20
2022-08-07T05:19:57.543Z,14.25
2022-08-07T05:20:57.498Z,14.33
2022-08-07T05:21:59.979Z,14.37
2022-08-07T05:22:57.497Z,14.39
2022-08-07T05:23:57.457Z,14.43
2022-08-07T05:25:02.120Z,14.47
2022-08-07T05:26:13.787Z,14.54
2022-08-07T05:26:58.893Z,14.61
2022-08-07T05:28:03.526Z,14.65
2022-08-07T05:28:58.436Z,14.69
2022-08-07T05:29:57.386Z,14.78
2022-08-07T05:30:57.395Z,14.83
2022-08-07T05:31:57.373Z,14.89
2022-08-07T05:32:57.756Z,14.94
2022-08-07T05:34:04.390Z,14.99
2022-08-07T05:34:58.335Z,15.06
2022-08-07T05:35:57.333Z,15.11
2022-08-07T05:36:57.346Z,15.14
2022-08-07T05:38:09.010Z,15.19
2022-08-07T05:39:09.009Z,15.21
2022-08-07T05:40:16.646Z,15.25
2022-08-07T05:40:58.299Z,15.31
2022-08-07T05:42:02.237Z,15.35
2022-08-07T05:42:58.222Z,15.38
2022-08-07T05:44:11.779Z,15.44
2022-08-07T05:45:14.314Z,15.47
2022-08-07T05:45:58.180Z,15.50
2022-08-07T05:46:57.194Z,15.51
2022-08-07T05:48:02.038Z,15.56
2022-08-07T05:48:59.686Z,15.59
2022-08-07T05:49:57.124Z,15.67
2022-08-07T05:50:57.549Z,15.76
2022-08-07T05:51:57.110Z,15.84
2022-08-07T05:52:57.089Z,15.90
2022-08-07T05:54:13.643Z,15.96
2022-08-07T05:54:58.771Z,16.00
2022-08-07T05:56:03.869Z,16.00
2022-08-07T05:56:58.712Z,16.04
2022-08-07T05:57:57.032Z,16.07
2022-08-07T05:58:57.021Z,16.15
2022-08-07T05:59:57.738Z,16.23
2022-08-07T06:00:56.990Z,16.25
2022-08-07T06:01:57.539Z,16.30
2022-08-07T06:02:56.969Z,16.33
2022-08-07T06:04:01.100Z,16.34
2022-08-07T06:04:56.928Z,16.38
2022-08-07T06:05:56.899Z,16.45
2022-08-07T06:07:03.920Z,16.49
2022-08-07T06:08:13.204Z,16.53
2022-08-07T06:08:58.204Z,16.60
2022-08-07T06:10:05.526Z,16.66
2022-08-07T06:10:57.869Z,16.71
2022-08-07T06:11:56.836Z,16.85
2022-08-07T06:12:56.830Z,17.06
2022-08-07T06:14:12.076Z,17.54
2022-08-07T06:14:58.794Z,18.35
2022-08-07T06:15:57.791Z,19.06
2022-08-07T06:16:57.174Z,19.43
2022-08-07T06:17:56.747Z,19.84
2022-08-07T06:18:56.848Z,20.24
2022-08-07T06:20:03.303Z,20.76
2022-08-07T06:22:14.462Z,21.09
2022-08-07T06:22:15.470Z,20.76
2022-08-07T06:23:02.139Z,20.95
2022-08-07T06:24:37.478Z,21.29
2022-08-07T06:25:01.405Z,21.72
2022-08-07T06:25:57.179Z,22.02
2022-08-07T06:26:56.645Z,22.33
2022-08-07T06:28:01.386Z,22.51
2022-08-07T06:28:57.607Z,22.65
2022-08-07T06:29:56.634Z,22.60
2022-08-07T06:30:58.308Z,22.75
2022-08-07T06:31:56.567Z,23.16
2022-08-07T06:32:56.557Z,23.55
2022-08-07T06:33:56.556Z,23.85
2022-08-07T06:34:56.567Z,23.63
2022-08-07T06:36:12.179Z,23.31
2022-08-07T06:36:57.566Z,23.61
2022-08-07T06:37:56.496Z,23.93
2022-08-07T06:38:58.988Z,24.10
2022-08-07T06:40:13.427Z,24.32
2022-08-07T06:40:57.585Z,24.22
2022-08-07T06:42:02.960Z,24.16
2022-08-07T06:42:57.466Z,23.93
2022-08-07T06:43:59.412Z,23.55
2022-08-07T06:44:57.413Z,23.33
2022-08-07T06:46:00.765Z,23.38
2022-08-07T06:47:10.153Z,23.46
2022-08-07T06:47:59.461Z,23.58
2022-08-07T06:48:56.603Z,23.50
2022-08-07T06:49:58.513Z,23.48
2022-08-07T06:50:56.334Z,23.39
2022-08-07T06:51:59.479Z,23.01
2022-08-07T06:52:57.303Z,23.28
2022-08-07T06:55:28.188Z,23.58
2022-08-07T06:55:33.474Z,23.76
2022-08-07T06:56:01.274Z,23.69
2022-08-07T06:56:57.286Z,23.55
2022-08-07T06:57:57.222Z,23.36
2022-08-07T07:00:13.246Z,22.97
2022-08-07T07:00:14.718Z,22.90
2022-08-07T07:00:57.223Z,23.16
2022-08-07T07:01:56.359Z,23.46
2022-08-07T07:02:57.380Z,23.75
2022-08-07T07:04:04.246Z,23.85
2022-08-07T07:04:57.156Z,24.18
2022-08-07T07:06:03.486Z,24.22
2022-08-07T07:07:01.353Z,24.34
2022-08-07T07:07:59.946Z,24.31
2022-08-07T07:08:58.172Z,24.21
2022-08-07T07:09:56.117Z,24.25
2022-08-07T07:10:56.811Z,24.21
2022-08-07T07:12:08.937Z,23.85
2022-08-07T07:12:57.084Z,24.10
2022-08-07T07:14:01.444Z,24.42
2022-08-07T07:14:57.637Z,24.16
2022-08-07T07:15:56.007Z,24.37
2022-08-07T07:16:56.049Z,24.49
2022-08-07T07:17:55.987Z,24.30
2022-08-07T07:18:56.001Z,24.50
2022-08-07T07:19:59.056Z,24.65
2022-08-07T07:20:56.287Z,24.87
2022-08-07T07:22:11.762Z,24.68
2022-08-07T07:24:05.385Z,24.40
2022-08-07T07:24:09.211Z,24.55
2022-08-07T07:25:02.818Z,24.53
2022-08-07T07:26:35.579Z,24.85
2022-08-07T07:26:56.885Z,25.20
2022-08-07T07:28:02.283Z,25.30
2022-08-07T07:29:38.931Z,25.46
2022-08-07T07:30:10.136Z,25.60
2022-08-07T07:30:56.838Z,25.32
2022-08-07T07:31:56.107Z,25.00
2022-08-07T07:32:55.845Z,24.69
2022-08-07T07:33:57.220Z,24.87
2022-08-07T07:34:55.779Z,25.32
2022-08-07T07:36:12.601Z,25.38
2022-08-07T07:36:57.078Z,25.51
2022-08-07T07:38:02.239Z,25.50
2022-08-07T07:38:56.725Z,25.24
2022-08-07T07:39:55.789Z,25.18
2022-08-07T07:40:58.841Z,25.28
2022-08-07T07:42:13.037Z,25.36
2022-08-07T07:42:57.147Z,25.33
2022-08-07T07:44:16.750Z,25.21
2022-08-07T07:44:56.646Z,25.27
2022-08-07T07:46:37.676Z,25.77
2022-08-07T07:47:02.184Z,25.90
2022-08-07T07:47:56.762Z,25.80
2022-08-07T07:48:59.905Z,25.95
2022-08-07T07:50:34.517Z,25.88
2022-08-07T07:50:56.615Z,25.46
2022-08-07T07:51:57.986Z,25.72
2022-08-07T07:52:55.594Z,25.79
2022-08-07T07:53:55.537Z,25.69
2022-08-07T07:54:55.783Z,25.55
2022-08-07T07:55:57.724Z,24.76
2022-08-07T07:56:57.431Z,24.64
2022-08-07T07:57:58.448Z,24.65
2022-08-07T07:58:55.487Z,24.40
2022-08-07T07:59:55.466Z,24.35
2022-08-07T08:00:55.906Z,24.21
2022-08-07T08:02:03.205Z,24.10
2022-08-07T08:03:01.113Z,24.09
2022-08-07T08:04:09.856Z,24.06
2022-08-07T08:04:56.492Z,24.12
2022-08-07T08:05:55.783Z,24.64
2022-08-07T08:06:55.805Z,25.02
2022-08-07T08:08:00.867Z,25.35
2022-08-07T08:08:56.497Z,25.18
2022-08-07T08:10:05.764Z,24.76
2022-08-07T08:10:56.336Z,24.93
2022-08-07T08:12:02.986Z,25.38
2022-08-07T08:12:59.659Z,25.65
2022-08-07T08:13:55.861Z,24.78
2022-08-07T08:14:55.448Z,24.50
2022-08-07T08:15:55.305Z,24.45
2022-08-07T08:16:55.368Z,24.68
2022-08-07T08:17:58.675Z,24.58
2022-08-07T08:18:56.646Z,24.47
2022-08-07T08:20:18.780Z,24.42
2022-08-07T08:20:56.200Z,24.24
2022-08-07T08:22:03.656Z,24.18
2022-08-07T08:22:56.474Z,24.45
2022-08-07T08:23:55.184Z,24.37
2022-08-07T08:25:04.829Z,24.20
2022-08-07T08:25:56.288Z,24.25
2022-08-07T08:26:55.359Z,24.57
2022-08-07T08:27:57.346Z,24.55
2022-08-07T08:28:56.199Z,24.47
2022-08-07T08:29:55.886Z,24.50
2022-08-07T08:30:55.742Z,24.61
2022-08-07T08:32:17.055Z,24.34
2022-08-07T08:32:56.188Z,24.24
2022-08-07T08:33:55.833Z,24.20
2022-08-07T08:34:55.478Z,24.43
2022-08-07T08:35:55.006Z,24.69
2022-08-07T08:36:57.579Z,24.91
2022-08-07T08:38:01.207Z,24.95
2022-08-07T08:38:56.109Z,24.96
2022-08-07T08:39:58.640Z,24.93
2022-08-07T08:40:54.985Z,24.83
2022-08-07T08:41:57.218Z,24.77
2022-08-07T08:42:54.936Z,24.57
2022-08-07T08:43:58.739Z,24.20
2022-08-07T08:44:54.924Z,24.15
2022-08-07T08:45:59.353Z,23.94
2022-08-07T08:46:56.480Z,23.63
2022-08-07T08:47:55.314Z,23.57
2022-08-07T08:48:54.908Z,23.61
2022-08-07T08:50:02.482Z,23.65
2022-08-07T08:50:55.840Z,23.43
2022-08-07T08:52:14.067Z,23.35
2022-08-07T08:52:56.068Z,23.50
2022-08-07T08:53:54.836Z,23.42
2022-08-07T08:54:54.777Z,23.46
2022-08-07T08:55:58.984Z,23.57
2022-08-07T08:56:54.739Z,23.61
2022-08-07T08:57:54.727Z,23.65
2022-08-07T08:58:55.085Z,23.65
2022-08-07T08:59:54.717Z,23.78
2022-08-07T09:00:54.696Z,23.83
2022-08-07T09:01:58.479Z,23.68
2022-08-07T09:02:57.825Z,23.60
2022-08-07T09:03:55.521Z,23.47
2022-08-07T09:04:54.813Z,23.65
2022-08-07T09:05:54.696Z,23.72
2022-08-07T09:06:54.689Z,23.76
2022-08-07T09:07:58.175Z,23.73
2022-08-07T09:08:54.596Z,23.85
2022-08-07T09:09:57.219Z,23.97
2022-08-07T09:10:54.799Z,23.97
2022-08-07T09:12:02.857Z,24.13
2022-08-07T09:12:55.716Z,24.18
2022-08-07T09:13:54.568Z,24.28
2022-08-07T09:14:58.786Z,24.28
2022-08-07T09:16:24.603Z,24.15
2022-08-07T09:16:55.510Z,24.18
2022-08-07T09:17:59.596Z,24.05
2022-08-07T09:18:58.797Z,24.05
2022-08-07T09:19:55.365Z,24.02
2022-08-07T09:20:58.453Z,24.09
2022-08-07T09:22:09.849Z,24.16
2022-08-07T09:24:32.612Z,24.24
2022-08-07T09:24:33.254Z,24.10
2022-08-07T09:25:00.469Z,24.12
2022-08-07T09:25:55.384Z,24.22
2022-08-07T09:26:57.067Z,24.24
2022-08-07T09:28:01.310Z,24.20
2022-08-07T09:30:04.150Z,24.13
2022-08-07T09:30:06.562Z,24.18
2022-08-07T09:30:55.337Z,24.20
2022-08-07T09:31:54.306Z,24.05
2022-08-07T09:32:54.347Z,23.95
2022-08-07T09:33:57.851Z,24.05
2022-08-07T09:34:54.333Z,24.00
2022-08-07T09:36:05.468Z,24.02
2022-08-07T09:36:55.256Z,24.08
2022-08-07T09:37:54.596Z,24.15
2022-08-07T09:38:54.289Z,24.20
2022-08-07T09:39:57.839Z,24.03
2022-08-07T09:40:54.209Z,24.06
2022-08-07T09:41:58.969Z,24.25
2022-08-07T09:42:55.801Z,24.35
2022-08-07T09:44:06.032Z,24.49
2022-08-07T09:47:27.347Z,24.67
2022-08-07T09:47:50.341Z,24.84
2022-08-07T09:47:50.719Z,24.77
2022-08-07T09:48:01.198Z,24.60
2022-08-07T09:50:02.567Z,24.40
2022-08-07T09:50:55.465Z,24.22
2022-08-07T09:52:16.254Z,24.22
2022-08-07T09:52:55.055Z,24.18
2022-08-07T09:53:59.293Z,24.32
2022-08-07T09:54:55.044Z,24.35
2022-08-07T09:56:03.863Z,24.13
2022-08-07T09:56:55.366Z,24.12
2022-08-07T09:57:53.985Z,24.10
2022-08-07T09:58:53.958Z,24.16
2022-08-07T10:00:00.351Z,24.12
2022-08-07T10:00:54.956Z,24.25
2022-08-07T10:01:54.542Z,24.42
2022-08-07T10:02:55.648Z,24.55
2022-08-07T10:04:05.252Z,24.57
2022-08-07T10:04:57.113Z,24.34
2022-08-07T10:06:00.292Z,24.37
2022-08-07T10:06:55.783Z,24.42
2022-08-07T10:07:55.461Z,24.45
2022-08-07T10:08:53.917Z,24.42
2022-08-07T10:10:00.400Z,24.40
2022-08-07T10:11:59.944Z,24.39
2022-08-07T10:12:03.154Z,24.50
2022-08-07T10:12:54.823Z,24.64
2022-08-07T10:14:00.940Z,24.65
2022-08-07T10:14:55.380Z,24.71
2022-08-07T10:15:53.799Z,24.73
2022-08-07T10:16:53.747Z,24.57
2022-08-07T10:18:03.014Z,24.68
2022-08-07T10:18:54.722Z,24.67
2022-08-07T10:19:53.734Z,24.64
2022-08-07T10:20:53.807Z,24.62
2022-08-07T10:22:15.421Z,24.67
2022-08-07T10:22:54.655Z,24.78
2022-08-07T10:24:04.748Z,24.84
2022-08-07T10:24:54.670Z,24.83
2022-08-07T10:25:53.673Z,25.00
2022-08-07T10:26:53.851Z,25.09
2022-08-07T10:27:53.688Z,25.02
2022-08-07T10:28:53.596Z,24.96
2022-08-07T10:29:53.634Z,25.03
2022-08-07T10:30:53.584Z,25.10
2022-08-07T10:31:53.963Z,25.10
2022-08-07T10:32:54.240Z,25.13
2022-08-07T10:34:15.027Z,25.21
2022-08-07T10:34:54.527Z,25.13
2022-08-07T10:35:56.971Z,25.13
2022-08-07T10:36:54.917Z,25.03
2022-08-07T10:38:15.559Z,24.93
2022-08-07T10:38:54.765Z,24.85
2022-08-07T10:40:02.837Z,24.90
2022-08-07T10:40:54.441Z,24.96
2022-08-07T10:42:01.702Z,25.15
2022-08-07T10:42:54.716Z,25.30
2022-08-07T10:43:53.435Z,25.20
2022-08-07T10:44:54.648Z,25.05
2022-08-07T10:45:58.043Z,25.08
2022-08-07T10:46:54.346Z,25.03
2022-08-07T10:47:56.550Z,25.10
2022-08-07T10:48:54.674Z,25.18
2022-08-07T10:49:53.324Z,25.24
2022-08-07T10:50:53.307Z,25.17
2022-08-07T10:52:02.015Z,25.14
2022-08-07T10:52:54.316Z,25.14
2022-08-07T10:53:57.169Z,25.14
2022-08-07T10:55:01.643Z,25.06
2022-08-07T10:55:54.244Z,25.05
2022-08-07T10:56:53.216Z,24.84
2022-08-07T10:57:56.282Z,24.81
2022-08-07T10:58:59.777Z,24.87
2022-08-07T10:59:54.217Z,24.95
2022-08-07T11:00:56.515Z,24.98
2022-08-07T11:02:04.765Z,25.08
2022-08-07T11:02:54.291Z,25.24
2022-08-07T11:04:05.375Z,25.36
2022-08-07T11:04:54.201Z,25.42
2022-08-07T11:05:53.706Z,25.57
2022-08-07T11:06:53.258Z,25.65
2022-08-07T11:07:59.367Z,25.61
2022-08-07T11:08:54.152Z,25.51
2022-08-07T11:10:09.433Z,25.24
2022-08-07T11:10:59.459Z,25.20
2022-08-07T11:11:54.096Z,25.27
2022-08-07T11:13:02.003Z,25.35
2022-08-07T11:14:44.159Z,25.36
2022-08-07T11:15:00.117Z,25.39
2022-08-07T11:15:54.811Z,25.51
2022-08-07T11:16:55.799Z,25.52
2022-08-07T11:17:54.199Z,25.39
2022-08-07T11:18:52.999Z,25.43
2022-08-07T11:19:53.101Z,25.33
2022-08-07T11:20:52.962Z,25.32
2022-08-07T11:21:53.367Z,25.15
2022-08-07T11:22:52.934Z,25.13
2022-08-07T11:23:52.997Z,25.14
2022-08-07T11:24:52.939Z,25.28
2022-08-07T11:25:52.961Z,25.36
2022-08-07T11:26:52.871Z,25.46
2022-08-07T11:28:01.398Z,25.58
2022-08-07T11:28:55.512Z,25.70
2022-08-07T11:29:53.889Z,25.75
2022-08-07T11:30:53.854Z,25.67
2022-08-07T11:31:52.915Z,25.62
2022-08-07T11:32:52.905Z,25.58
2022-08-07T11:33:59.161Z,25.45
2022-08-07T11:34:53.842Z,25.43
2022-08-07T11:35:59.549Z,25.58
2022-08-07T11:36:53.879Z,25.75
2022-08-07T11:37:57.837Z,25.88
2022-08-07T11:38:53.941Z,26.07
2022-08-07T11:40:00.061Z,26.26
2022-08-07T11:40:53.754Z,26.48
2022-08-07T11:42:00.447Z,26.57
2022-08-07T11:42:54.157Z,26.33
2022-08-07T11:44:11.457Z,26.10
2022-08-07T11:44:57.673Z,25.99
2022-08-07T11:45:53.602Z,25.91
2022-08-07T11:46:52.700Z,26.01
2022-08-07T11:47:56.280Z,26.09
2022-08-07T11:49:51.444Z,26.20
2022-08-07T11:50:31.408Z,26.29
2022-08-07T11:50:57.117Z,26.30
2022-08-07T11:51:52.543Z,26.29
2022-08-07T11:52:52.585Z,26.36
2022-08-07T11:54:01.709Z,26.52
2022-08-07T11:54:55.017Z,26.63
2022-08-07T11:56:15.590Z,26.57
2022-08-07T11:56:56.182Z,26.65
2022-08-07T11:57:59.818Z,26.65
2022-08-07T11:58:53.496Z,26.75
2022-08-07T12:00:10.042Z,26.94
2022-08-07T12:01:02.087Z,27.18
2022-08-07T12:02:00.013Z,27.39
2022-08-07T12:02:53.766Z,27.59
2022-08-07T12:03:52.520Z,27.63
2022-08-07T12:04:52.642Z,27.39
2022-08-07T12:05:52.380Z,26.88
2022-08-07T12:07:00.354Z,26.52
2022-08-07T12:07:53.599Z,26.55
2022-08-07T12:08:53.674Z,26.76
2022-08-07T12:09:52.333Z,26.99
2022-08-07T12:11:08.382Z,27.14
2022-08-07T12:12:10.026Z,27.03
2022-08-07T12:12:53.284Z,27.13
2022-08-07T12:13:52.333Z,27.22
2022-08-07T12:14:55.383Z,27.27
2022-08-07T12:16:06.849Z,27.31
2022-08-07T12:16:53.230Z,27.22
2022-08-07T12:17:59.205Z,27.29
2022-08-07T12:18:53.219Z,27.32
2022-08-07T12:20:03.294Z,27.32
2022-08-07T12:20:54.092Z,27.40
2022-08-07T12:22:36.323Z,27.50
2022-08-07T12:22:58.256Z,27.51
2022-08-07T12:24:06.808Z,27.43
2022-08-07T12:25:02.597Z,27.31
2022-08-07T12:26:06.234Z,27.21
2022-08-07T12:26:53.107Z,27.18
2022-08-07T12:28:08.486Z,27.22
2022-08-07T12:28:54.051Z,27.22
2022-08-07T12:29:52.675Z,27.12
2022-08-07T12:30:53.181Z,26.92
2022-08-07T12:32:02.583Z,26.91
2022-08-07T12:32:53.049Z,27.10
2022-08-07T12:34:01.018Z,27.25
2022-08-07T12:34:55.719Z,27.21
2022-08-07T12:35:57.995Z,27.27
2022-08-07T12:36:52.959Z,27.34
2022-08-07T12:38:09.013Z,27.39
2022-08-07T12:38:57.515Z,27.28
2022-08-07T12:39:52.988Z,27.36
2022-08-07T12:40:51.961Z,27.24
2022-08-07T12:41:52.123Z,27.00
2022-08-07T12:42:54.902Z,27.02
2022-08-07T12:44:03.586Z,27.04
2022-08-07T12:44:52.862Z,27.22
2022-08-07T12:45:52.513Z,27.34
2022-08-07T12:46:51.901Z,27.39
2022-08-07T12:47:51.825Z,27.37
2022-08-07T12:48:52.920Z,27.36
2022-08-07T12:49:52.986Z,27.40
2022-08-07T12:50:52.051Z,27.62
2022-08-07T12:52:14.601Z,27.77
2022-08-07T12:52:53.099Z,27.70
2022-08-07T12:54:03.021Z,27.65
2022-08-07T12:54:54.936Z,27.69